Terminal Aerodrome Forecast
Issued by NWS

Home | Current Version | Previous Version | Text Only | Print | Product List | Glossary On
Versions: 1 2 3 4 5 6 7 8 9 10 11 12 13 14
000
FTAK31 PAJN 210500 RRA
TAFAWG
TAF
PAWG 210542Z 2106/2206 13008KT P6SM -RA BKN040 OVC060
      TEMPO 2106/2108 20012KT 6SM -SHRA BKN030 OVC050
     FM211500 12012G20KT P6SM -RA SCT025 OVC050 WS020/14035KT
     FM212000 VRB05KT P6SM VCSH BKN060
      AMD LTD TO CLD VIS AND WIND 2106/2115=

USA.gov is the U.S. government's official web portal to all federal, state and local government web resources and services.